Time;durP1;ratioP1;P1;durP2;ratioP2;P2;SDS_P1;SDS_P2;PMS_P1;PMS_P2;Temp;Humidity;BMP_temperature;BMP_pressure;BME280_temperature;BME280_humidity;BME280_pressure;Samples;Min_cycle;Max_cycle;Signal;HPM_P1;HPM_P2
2023/01/04 00:02:15;;;;;;;;;;;25.00;99.90;;;;;;5014213;28;19996;-73
2023/01/04 00:04:41;;;;;;;;;;;24.90;99.90;;;;;;5014154;28;19909;-78
2023/01/04 00:07:08;;;;;;;;;;;24.90;99.90;;;;;;5014355;28;19917;-74
2023/01/04 00:09:34;;;;;;;;;;;25.00;99.90;;;;;;5013840;28;20391;-81
2023/01/04 00:12:01;;;;;;;;;;;25.00;99.90;;;;;;5014316;28;19909;-82
2023/01/04 00:14:28;;;;;;;;;;;25.00;99.90;;;;;;5014090;28;20527;-73
2023/01/04 00:16:54;;;;;;;;;;;24.90;99.90;;;;;;5014074;28;19992;-78
2023/01/04 00:19:21;;;;;;;;;;;24.90;99.90;;;;;;5013445;28;19910;-79
2023/01/04 00:21:48;;;;;;;;;;;25.00;99.90;;;;;;5014026;28;19914;-76
2023/01/04 00:24:14;;;;;;;;;;;24.90;99.90;;;;;;5013982;28;19913;-76
2023/01/04 00:26:41;;;;;;;;;;;25.00;99.90;;;;;;5013684;28;19910;-80
2023/01/04 00:29:09;;;;;;;;;;;25.00;99.90;;;;;;5012275;28;19920;-80
2023/01/04 00:31:36;;;;;;;;;;;24.90;99.90;;;;;;5013533;28;20460;-80
2023/01/04 00:34:03;;;;;;;;;;;24.90;99.90;;;;;;5013646;28;19933;-76
2023/01/04 00:36:31;;;;;;;;;;;24.90;99.90;;;;;;5013511;28;19925;-80
2023/01/04 00:39:08;;;;;;;;;;;24.80;99.90;;;;;;5013251;28;20363;-77
2023/01/04 00:41:49;;;;;;;;;;;24.80;99.90;;;;;;5013315;28;20376;-79
2023/01/04 00:44:16;;;;;;;;;;;24.90;99.90;;;;;;5013739;28;19913;-73
2023/01/04 00:46:43;;;;;;;;;;;24.90;99.90;;;;;;5016557;28;20005;-77
2023/01/04 00:49:11;;;;;;;;;;;25.00;99.90;;;;;;5014576;28;20372;-80
2023/01/04 00:51:38;;;;;;;;;;;25.00;99.90;;;;;;5013699;28;20024;-78
2023/01/04 00:54:07;;;;;;;;;;;25.10;99.90;;;;;;5013366;28;20275;-80
2023/01/04 00:56:34;;;;;;;;;;;25.10;99.90;;;;;;5013335;28;19936;-78
2023/01/04 00:59:01;;;;;;;;;;;25.00;99.90;;;;;;5013170;28;20291;-74
2023/01/04 01:01:29;;;;;;;;;;;25.20;99.90;;;;;;5012903;28;19916;-75
2023/01/04 01:03:57;;;;;;;;;;;25.50;99.90;;;;;;5013395;28;19909;-76
2023/01/04 01:06:24;;;;;;;;;;;25.90;99.90;;;;;;5013577;28;19913;-74
2023/01/04 01:08:51;;;;;;;;;;;26.30;99.90;;;;;;5013352;28;19910;-79
2023/01/04 01:11:19;;;;;;;;;;;27.00;99.90;;;;;;5013970;28;19963;-78
2023/01/04 01:13:45;;;;;;;;;;;27.50;99.90;;;;;;5013610;28;19922;-75
2023/01/04 01:16:13;;;;;;;;;;;27.30;99.90;;;;;;5013230;28;19968;-79
2023/01/04 01:18:41;;;;;;;;;;;27.30;99.90;;;;;;5013508;28;19913;-75
2023/01/04 01:21:09;;;;;;;;;;;27.20;99.90;;;;;;5014410;28;19910;-78
2023/01/04 01:23:36;;;;;;;;;;;27.00;99.90;;;;;;5013489;28;19914;-79
2023/01/04 01:26:03;;;;;;;;;;;26.80;99.90;;;;;;5014576;28;19918;-79
2023/01/04 01:28:30;;;;;;;;;;;26.50;99.90;;;;;;5013668;28;20378;-76
2023/01/04 01:30:58;;;;;;;;;;;26.10;99.90;;;;;;5011882;28;20390;-80
2023/01/04 01:33:27;;;;;;;;;;;25.70;99.90;;;;;;5013047;28;20272;-79
2023/01/04 01:35:54;;;;;;;;;;;25.50;99.90;;;;;;5015042;28;20387;-78
2023/01/04 01:38:21;;;;;;;;;;;25.50;99.90;;;;;;5014122;28;19920;-79
2023/01/04 01:40:47;;;;;;;;;;;25.40;99.90;;;;;;5016512;28;19921;-79
2023/01/04 01:43:18;;;;;;;;;;;25.30;99.90;;;;;;5020339;28;20048;-78
2023/01/04 01:45:46;;;;;;;;;;;25.30;99.90;;;;;;5018388;28;19990;-77
2023/01/04 01:48:16;;;;;;;;;;;25.10;99.90;;;;;;5023396;28;19956;-78
2023/01/04 01:51:02;;;;;;;;;;;25.00;99.90;;;;;;5013797;28;19920;-74
2023/01/04 01:53:31;;;;;;;;;;;25.00;99.90;;;;;;5012470;28;19921;-78
2023/01/04 01:55:59;;;;;;;;;;;24.90;99.90;;;;;;5012602;28;19921;-78
2023/01/04 01:58:31;;;;;;;;;;;25.00;99.90;;;;;;5011951;28;19935;-79
2023/01/04 02:00:58;;;;;;;;;;;25.00;99.90;;;;;;5012049;28;20000;-79
2023/01/04 02:03:32;;;;;;;;;;;24.90;99.90;;;;;;5012248;28;20028;-76
2023/01/04 02:06:00;;;;;;;;;;;24.90;99.90;;;;;;5012451;28;19914;-80
2023/01/04 02:08:27;;;;;;;;;;;25.00;99.90;;;;;;5011866;28;20008;-80
2023/01/04 02:10:54;;;;;;;;;;;24.90;99.90;;;;;;5012563;28;19960;-73
2023/01/04 02:14:25;;;;;;;;;;;25.10;99.90;;;;;;5012192;28;19932;-75
2023/01/04 02:16:40;;;;;;;;;;;25.00;99.90;;;;;;5012063;28;19910;-69
2023/01/04 02:19:06;;;;;;;;;;;25.00;99.90;;;;;;5012105;28;19909;-77
2023/01/04 02:21:45;;;;;;;;;;;25.10;99.90;;;;;;5011762;28;19910;-70
2023/01/04 02:24:30;;;;;;;;;;;25.00;99.90;;;;;;5012240;28;19971;-73
2023/01/04 02:27:03;;;;;;;;;;;25.00;99.90;;;;;;5012047;28;19910;-76
2023/01/04 02:29:42;;;;;;;;;;;25.00;99.90;;;;;;5011327;28;20296;-67
2023/01/04 02:32:08;;;;;;;;;;;25.00;99.90;;;;;;5010705;28;20264;-78
2023/01/04 02:34:43;;;;;;;;;;;25.10;99.90;;;;;;5011864;28;19925;-78
2023/01/04 02:37:19;;;;;;;;;;;25.10;99.90;;;;;;5012058;28;19917;-72
2023/01/04 02:39:46;;;;;;;;;;;25.20;99.90;;;;;;5011539;28;19916;-76
2023/01/04 02:42:19;;;;;;;;;;;25.30;99.90;;;;;;5011868;28;20364;-80
2023/01/04 02:44:56;;;;;;;;;;;25.20;99.90;;;;;;5011710;28;20363;-81
2023/01/04 02:50:30;;;;;;;;;;;25.20;99.90;;;;;;4924891;28;19945;-80
2023/01/04 02:53:00;;;;;;;;;;;25.20;99.90;;;;;;5011676;28;19924;-80
2023/01/04 02:55:32;;;;;;;;;;;25.20;99.90;;;;;;5014934;28;19914;-77
2023/01/04 02:58:06;;;;;;;;;;;25.10;99.90;;;;;;5013681;28;20344;-79
2023/01/04 03:00:33;;;;;;;;;;;25.20;99.90;;;;;;5014244;28;20009;-78
2023/01/04 03:06:16;;;;;;;;;;;25.00;99.90;;;;;;5015746;28;19917;-80
2023/01/04 03:08:45;;;;;;;;;;;25.00;99.90;;;;;;5014814;28;19960;-80
2023/01/04 03:14:03;;;;;;;;;;;24.80;99.90;;;;;;5015384;28;20288;-79
2023/01/04 03:16:30;;;;;;;;;;;24.60;99.90;;;;;;5015493;28;19959;-79
2023/01/04 03:19:03;;;;;;;;;;;24.40;99.90;;;;;;5014974;28;19910;-79
2023/01/04 03:21:30;;;;;;;;;;;24.30;99.90;;;;;;5015476;28;19987;-79
2023/01/04 03:35:37;;;;;;;;;;;24.00;99.90;;;;;;5015718;28;20331;-81
2023/01/04 03:49:50;;;;;;;;;;;23.90;99.90;;;;;;5014553;28;19916;-69
2023/01/04 03:52:17;;;;;;;;;;;23.70;99.90;;;;;;5007496;28;19917;-74
2023/01/04 03:54:45;;;;;;;;;;;23.60;99.90;;;;;;5014547;28;19963;-76
2023/01/04 03:57:13;;;;;;;;;;;23.30;99.90;;;;;;5014207;28;19920;-74
2023/01/04 03:59:59;;;;;;;;;;;22.80;99.90;;;;;;5013759;28;19913;-71
2023/01/04 04:02:28;;;;;;;;;;;22.50;99.90;;;;;;5013683;28;19910;-68
2023/01/04 04:10:24;;;;;;;;;;;22.10;99.90;;;;;;5014356;28;19916;-70
2023/01/04 04:12:51;;;;;;;;;;;22.30;99.90;;;;;;5014002;28;19921;-68
2023/01/04 04:15:19;;;;;;;;;;;22.20;99.90;;;;;;5013860;28;19909;-72
2023/01/04 04:17:46;;;;;;;;;;;22.30;99.90;;;;;;5013895;28;19910;-69
2023/01/04 04:20:13;;;;;;;;;;;22.40;99.90;;;;;;5014169;28;19992;-73
2023/01/04 04:22:40;;;;;;;;;;;22.30;99.90;;;;;;5014335;28;19920;-70
2023/01/04 04:25:06;;;;;;;;;;;22.40;99.90;;;;;;5014157;28;19916;-68
2023/01/04 04:27:33;;;;;;;;;;;22.30;99.90;;;;;;5013773;28;20283;-69
2023/01/04 04:30:01;;;;;;;;;;;22.30;99.90;;;;;;5013502;28;19909;-70
2023/01/04 04:32:28;;;;;;;;;;;22.20;99.90;;;;;;5014186;28;19915;-76
2023/01/04 04:34:54;;;;;;;;;;;22.10;99.90;;;;;;5014087;28;19926;-72
2023/01/04 04:37:21;;;;;;;;;;;22.20;99.90;;;;;;5014134;28;19909;-68
2023/01/04 04:39:47;;;;;;;;;;;22.10;99.90;;;;;;5013659;28;20379;-72
2023/01/04 04:42:14;;;;;;;;;;;22.20;99.90;;;;;;5013636;28;20279;-68
2023/01/04 04:44:41;;;;;;;;;;;22.10;99.90;;;;;;5013420;28;19924;-69
2023/01/04 04:47:07;;;;;;;;;;;22.10;99.90;;;;;;5013855;28;19909;-72
2023/01/04 04:49:34;;;;;;;;;;;22.10;99.90;;;;;;5013261;28;19910;-69
2023/01/04 04:52:01;;;;;;;;;;;22.10;99.90;;;;;;5013496;28;19996;-69
2023/01/04 04:54:27;;;;;;;;;;;22.10;99.90;;;;;;5013309;28;20072;-71
2023/01/04 04:56:54;;;;;;;;;;;22.10;99.90;;;;;;5013400;28;19909;-69
2023/01/04 04:59:20;;;;;;;;;;;22.10;99.90;;;;;;5012670;28;19937;-70
2023/01/04 05:01:47;;;;;;;;;;;22.20;99.90;;;;;;5013403;28;19910;-68
2023/01/04 05:04:15;;;;;;;;;;;22.20;99.90;;;;;;5013453;28;20282;-70
2023/01/04 05:06:42;;;;;;;;;;;22.30;99.90;;;;;;5013478;28;19925;-74
2023/01/04 05:09:10;;;;;;;;;;;22.30;99.90;;;;;;5012728;28;19909;-69
2023/01/04 05:14:21;;;;;;;;;;;22.30;99.90;;;;;;5012911;28;19943;-74
2023/01/04 05:16:48;;;;;;;;;;;22.30;99.90;;;;;;5012481;28;19917;-75
2023/01/04 05:19:14;;;;;;;;;;;22.20;99.90;;;;;;5012466;28;19917;-77
2023/01/04 05:21:41;;;;;;;;;;;22.20;99.90;;;;;;5012891;28;19913;-80
2023/01/04 05:24:10;;;;;;;;;;;22.30;99.90;;;;;;5012603;28;19916;-75
2023/01/04 05:26:36;;;;;;;;;;;22.30;99.90;;;;;;5012822;28;20004;-73
2023/01/04 05:29:03;;;;;;;;;;;22.30;99.90;;;;;;5012247;28;19909;-76
2023/01/04 05:31:30;;;;;;;;;;;22.20;99.90;;;;;;5012645;28;19921;-75
2023/01/04 05:33:56;;;;;;;;;;;22.20;99.90;;;;;;5013065;28;20283;-77
2023/01/04 05:36:23;;;;;;;;;;;22.10;99.90;;;;;;5013039;28;19922;-78
2023/01/04 05:38:49;;;;;;;;;;;22.00;99.90;;;;;;5013159;28;20000;-74
2023/01/04 05:44:01;;;;;;;;;;;21.90;99.90;;;;;;5012912;28;20379;-80
2023/01/04 05:46:27;;;;;;;;;;;22.00;99.90;;;;;;5012780;28;20015;-69
2023/01/04 05:48:54;;;;;;;;;;;22.10;99.90;;;;;;5012608;28;19948;-76
2023/01/04 05:51:21;;;;;;;;;;;22.00;99.90;;;;;;5010970;28;19956;-77
2023/01/04 05:53:47;;;;;;;;;;;21.90;99.90;;;;;;5010532;28;19918;-74
2023/01/04 05:56:14;;;;;;;;;;;21.90;99.90;;;;;;5010514;28;19916;-80
2023/01/04 05:58:40;;;;;;;;;;;21.80;99.90;;;;;;5010153;28;19949;-76
2023/01/04 06:01:07;;;;;;;;;;;21.80;99.90;;;;;;5010367;28;19964;-79
2023/01/04 06:03:34;;;;;;;;;;;21.70;99.90;;;;;;5009997;28;19953;-78
2023/01/04 06:06:00;;;;;;;;;;;21.70;99.90;;;;;;5010240;28;19921;-81
2023/01/04 06:08:27;;;;;;;;;;;21.70;99.90;;;;;;5010169;28;20123;-79
2023/01/04 06:10:54;;;;;;;;;;;21.80;99.90;;;;;;5010367;28;19914;-79
2023/01/04 06:13:21;;;;;;;;;;;21.70;99.90;;;;;;5010068;28;19917;-80
2023/01/04 06:15:47;;;;;;;;;;;21.80;99.90;;;;;;5010292;28;19937;-80
2023/01/04 06:18:14;;;;;;;;;;;21.60;99.90;;;;;;5010004;28;19916;-70
2023/01/04 06:20:42;;;;;;;;;;;21.50;99.90;;;;;;5010501;28;19909;-75
2023/01/04 06:23:08;;;;;;;;;;;21.30;99.90;;;;;;5010532;28;20487;-75
2023/01/04 06:25:35;;;;;;;;;;;21.00;99.90;;;;;;5010164;28;19920;-77
2023/01/04 06:28:02;;;;;;;;;;;20.90;99.90;;;;;;5010735;28;19913;-71
2023/01/04 06:30:28;;;;;;;;;;;20.90;99.90;;;;;;5013844;28;19918;-76
2023/01/04 06:32:55;;;;;;;;;;;20.90;99.90;;;;;;5014062;28;19943;-74
2023/01/04 06:35:22;;;;;;;;;;;20.90;99.90;;;;;;5013786;28;20035;-78
2023/01/04 06:37:48;;;;;;;;;;;21.00;99.90;;;;;;5013923;28;19916;-76
2023/01/04 06:40:15;;;;;;;;;;;21.00;99.90;;;;;;5014472;28;19910;-81
2023/01/04 06:42:44;;;;;;;;;;;20.90;99.90;;;;;;5014507;28;20012;-79
2023/01/04 06:45:11;;;;;;;;;;;21.00;99.90;;;;;;5013879;28;20000;-78
2023/01/04 06:47:39;;;;;;;;;;;21.00;99.90;;;;;;5013727;28;19914;-80
2023/01/04 06:50:06;;;;;;;;;;;21.00;99.90;;;;;;5014065;28;20039;-76
2023/01/04 06:52:32;;;;;;;;;;;20.90;99.90;;;;;;5014558;28;19920;-80
2023/01/04 06:54:59;;;;;;;;;;;20.80;99.90;;;;;;5014034;28;20000;-81
2023/01/04 06:57:27;;;;;;;;;;;20.70;99.90;;;;;;5013142;28;19914;-78
2023/01/04 06:59:54;;;;;;;;;;;20.60;99.90;;;;;;5013515;28;19996;-72
2023/01/04 07:02:20;;;;;;;;;;;20.60;99.90;;;;;;5013615;28;19909;-77
2023/01/04 07:04:50;;;;;;;;;;;20.60;99.90;;;;;;5012796;28;20210;-71
2023/01/04 07:07:17;;;;;;;;;;;20.50;99.90;;;;;;5013477;28;20000;-71
2023/01/04 07:09:44;;;;;;;;;;;20.40;99.90;;;;;;5013055;28;19975;-80
2023/01/04 07:12:10;;;;;;;;;;;20.40;99.90;;;;;;5013587;28;20442;-75
2023/01/04 07:14:37;;;;;;;;;;;20.50;99.90;;;;;;5013346;28;19925;-75
2023/01/04 07:17:04;;;;;;;;;;;20.40;99.90;;;;;;5013393;28;20436;-76
2023/01/04 07:19:30;;;;;;;;;;;20.40;99.90;;;;;;5012840;28;19914;-79
2023/01/04 07:21:57;;;;;;;;;;;20.40;99.90;;;;;;5013256;28;19962;-72
2023/01/04 07:24:24;;;;;;;;;;;20.30;99.90;;;;;;5013008;28;19917;-73
2023/01/04 07:26:51;;;;;;;;;;;20.20;99.90;;;;;;5013190;28;20479;-75
2023/01/04 07:29:18;;;;;;;;;;;20.30;99.90;;;;;;5012365;28;20008;-71
2023/01/04 07:31:48;;;;;;;;;;;20.20;99.90;;;;;;5013207;28;19963;-75
2023/01/04 07:34:16;;;;;;;;;;;20.20;99.90;;;;;;5012836;28;19929;-72
2023/01/04 07:36:43;;;;;;;;;;;20.10;99.90;;;;;;5013331;28;19936;-77
2023/01/04 07:39:11;;;;;;;;;;;20.10;99.90;;;;;;5013372;28;19995;-77
2023/01/04 07:41:39;;;;;;;;;;;20.20;99.90;;;;;;5013562;28;19952;-81
2023/01/04 07:44:05;;;;;;;;;;;20.10;99.90;;;;;;5012283;28;19913;-77
2023/01/04 07:46:33;;;;;;;;;;;20.00;99.90;;;;;;5009773;28;19986;-70
2023/01/04 07:49:00;;;;;;;;;;;20.00;99.90;;;;;;5012138;28;19913;-79
2023/01/04 07:51:32;;;;;;;;;;;20.00;99.90;;;;;;5016143;28;19921;-73
2023/01/04 07:53:59;;;;;;;;;;;20.10;99.90;;;;;;5014847;28;20001;-79
2023/01/04 07:56:26;;;;;;;;;;;20.20;99.90;;;;;;5011921;28;19983;-79
2023/01/04 07:58:57;;;;;;;;;;;20.30;99.90;;;;;;5010718;28;20504;-81
2023/01/04 08:01:25;;;;;;;;;;;20.40;99.90;;;;;;5011343;28;19913;-85
2023/01/04 08:03:52;;;;;;;;;;;20.50;99.90;;;;;;5016465;28;19935;-81
2023/01/04 08:06:20;;;;;;;;;;;20.70;99.90;;;;;;5011252;28;20289;-78
2023/01/04 08:08:46;;;;;;;;;;;20.80;99.90;;;;;;5010455;28;19913;-80
2023/01/04 08:11:15;;;;;;;;;;;20.80;99.90;;;;;;5010840;28;20040;-81
2023/01/04 08:13:41;;;;;;;;;;;20.90;99.90;;;;;;5009522;28;19945;-82
2023/01/04 08:16:17;;;;;;;;;;;20.90;99.90;;;;;;5007564;28;20856;-74
2023/01/04 08:18:44;;;;;;;;;;;21.00;99.90;;;;;;5009374;28;19913;-80
2023/01/04 08:21:10;;;;;;;;;;;21.00;99.90;;;;;;5009821;28;19913;-75
2023/01/04 08:23:37;;;;;;;;;;;20.80;99.90;;;;;;5009698;28;19913;-78
2023/01/04 08:26:05;;;;;;;;;;;20.70;99.90;;;;;;5014283;28;19921;-78
2023/01/04 08:28:32;;;;;;;;;;;20.60;99.90;;;;;;5011154;28;20299;-81
2023/01/04 08:30:58;;;;;;;;;;;20.60;99.90;;;;;;5016959;28;19928;-83
2023/01/04 08:33:25;;;;;;;;;;;20.60;99.90;;;;;;5009520;28;19918;-69
2023/01/04 08:35:52;;;;;;;;;;;20.50;99.90;;;;;;5006863;28;20407;-77
2023/01/04 08:38:18;;;;;;;;;;;20.40;99.90;;;;;;5007188;28;19921;-72
2023/01/04 08:40:45;;;;;;;;;;;20.40;99.90;;;;;;5005534;28;20391;-67
2023/01/04 08:43:12;;;;;;;;;;;20.30;99.90;;;;;;5006578;28;20018;-72
2023/01/04 08:45:38;;;;;;;;;;;20.40;99.90;;;;;;5008419;28;19914;-78
2023/01/04 08:48:05;;;;;;;;;;;20.30;99.90;;;;;;5008031;28;20057;-69
2023/01/04 08:50:32;;;;;;;;;;;20.40;99.90;;;;;;5007376;28;20021;-68
2023/01/04 08:52:58;;;;;;;;;;;20.40;99.90;;;;;;5006260;28;19940;-71
2023/01/04 08:55:25;;;;;;;;;;;20.50;99.90;;;;;;5007074;28;19914;-68
2023/01/04 08:57:52;;;;;;;;;;;20.40;99.90;;;;;;5007287;28;19921;-76
2023/01/04 09:00:20;;;;;;;;;;;20.30;99.90;;;;;;5008240;28;19913;-77
2023/01/04 09:02:47;;;;;;;;;;;20.20;99.90;;;;;;5006632;28;20344;-75
2023/01/04 09:05:13;;;;;;;;;;;20.30;99.90;;;;;;5007483;28;19985;-79
2023/01/04 09:07:40;;;;;;;;;;;20.20;99.90;;;;;;5006779;28;20107;-77
2023/01/04 09:10:07;;;;;;;;;;;20.30;99.90;;;;;;5008493;28;19921;-81
2023/01/04 09:12:34;;;;;;;;;;;20.10;99.90;;;;;;5011332;28;20333;-72
2023/01/04 09:15:00;;;;;;;;;;;20.10;99.90;;;;;;5011610;28;20430;-81
2023/01/04 09:17:27;;;;;;;;;;;19.90;99.90;;;;;;5014581;28;20015;-76
2023/01/04 09:19:53;;;;;;;;;;;19.90;99.90;;;;;;5017402;28;19916;-80
2023/01/04 09:22:20;;;;;;;;;;;19.80;99.90;;;;;;5016893;28;19917;-72
2023/01/04 09:24:47;;;;;;;;;;;19.80;99.90;;;;;;5011558;28;20407;-76
2023/01/04 09:27:13;;;;;;;;;;;19.70;99.90;;;;;;5009546;28;20465;-73
2023/01/04 09:29:40;;;;;;;;;;;19.60;99.90;;;;;;5018815;28;19963;-76
2023/01/04 09:32:11;;;;;;;;;;;19.70;99.90;;;;;;5019171;28;19925;-80
2023/01/04 09:34:38;;;;;;;;;;;19.60;99.90;;;;;;5011915;28;20028;-76
2023/01/04 09:37:05;;;;;;;;;;;19.50;99.90;;;;;;5009908;28;20008;-75
2023/01/04 09:39:32;;;;;;;;;;;19.40;99.90;;;;;;5006792;28;19987;-71
2023/01/04 09:42:02;;;;;;;;;;;19.50;99.90;;;;;;5004760;28;19922;-69
2023/01/04 09:44:31;;;;;;;;;;;19.50;99.90;;;;;;5004988;28;19929;-68
2023/01/04 09:47:00;;;;;;;;;;;19.50;99.90;;;;;;5004642;28;19921;-68
2023/01/04 09:49:39;;;;;;;;;;;19.50;99.90;;;;;;5004265;28;19940;-72
2023/01/04 09:52:08;;;;;;;;;;;19.50;99.90;;;;;;5004365;28;20062;-69
2023/01/04 09:54:42;;;;;;;;;;;19.40;99.90;;;;;;5008641;28;19929;-71
2023/01/04 09:57:17;;;;;;;;;;;19.40;99.90;;;;;;5008337;28;20348;-69
2023/01/04 09:59:44;;;;;;;;;;;19.30;99.90;;;;;;5004314;28;20396;-68
2023/01/04 10:02:14;;;;;;;;;;;19.20;99.90;;;;;;5004884;28;19914;-68
2023/01/04 10:04:44;;;;;;;;;;;19.20;99.90;;;;;;5004884;28;19917;-80
2023/01/04 10:07:19;;;;;;;;;;;19.10;99.90;;;;;;5004332;28;19913;-68
2023/01/04 10:09:46;;;;;;;;;;;19.20;99.90;;;;;;5004054;28;19921;-68
2023/01/04 10:12:35;;;;;;;;;;;19.20;99.90;;;;;;5003930;28;19925;-72
2023/01/04 10:15:05;;;;;;;;;;;19.20;99.90;;;;;;5004090;28;19929;-69
2023/01/04 10:17:41;;;;;;;;;;;19.20;99.90;;;;;;5003418;28;19948;-69
2023/01/04 10:20:20;;;;;;;;;;;19.30;99.90;;;;;;5004042;28;19921;-69
2023/01/04 10:22:55;;;;;;;;;;;19.20;99.90;;;;;;5004036;28;19920;-69
2023/01/04 10:25:22;;;;;;;;;;;19.20;99.90;;;;;;5003515;28;20301;-75
2023/01/04 10:27:48;;;;;;;;;;;19.10;99.90;;;;;;5003367;28;20001;-69
2023/01/04 10:30:27;;;;;;;;;;;19.00;99.90;;;;;;5004095;28;19975;-70
2023/01/04 10:33:03;;;;;;;;;;;18.90;99.90;;;;;;5004275;28;20004;-78
2023/01/04 10:35:32;;;;;;;;;;;18.90;99.90;;;;;;5003952;28;20292;-84
2023/01/04 10:37:59;;;;;;;;;;;18.90;99.90;;;;;;5004110;28;19913;-68
2023/01/04 10:40:31;;;;;;;;;;;18.80;99.90;;;;;;5003544;28;19964;-69
2023/01/04 10:43:14;;;;;;;;;;;18.70;99.90;;;;;;5003821;28;19914;-72
2023/01/04 10:46:04;;;;;;;;;;;18.70;99.90;;;;;;5003418;28;19957;-68
2023/01/04 10:48:50;;;;;;;;;;;18.80;99.90;;;;;;5003425;28;19914;-69
2023/01/04 10:51:21;;;;;;;;;;;18.80;99.90;;;;;;5011920;28;19920;-69
2023/01/04 10:54:05;;;;;;;;;;;18.80;99.90;;;;;;5011943;28;19917;-70
2023/01/04 10:56:35;;;;;;;;;;;18.90;99.90;;;;;;5010157;28;19956;-72
2023/01/04 10:59:04;;;;;;;;;;;18.80;99.90;;;;;;5011178;28;19917;-71
2023/01/04 11:01:37;;;;;;;;;;;18.70;99.90;;;;;;5011709;28;20434;-70
2023/01/04 11:04:39;;;;;;;;;;;18.80;99.90;;;;;;5011378;28;19910;-70
2023/01/04 11:07:08;;;;;;;;;;;18.80;99.90;;;;;;4970374;28;20050;-71
2023/01/04 11:09:39;;;;;;;;;;;18.80;99.90;;;;;;5004088;28;19920;-71
2023/01/04 11:12:08;;;;;;;;;;;18.70;99.90;;;;;;5012120;28;20327;-70
2023/01/04 11:14:34;;;;;;;;;;;18.70;99.90;;;;;;5011769;28;20020;-71
2023/01/04 11:17:04;;;;;;;;;;;18.60;99.90;;;;;;5014790;28;20407;-77
2023/01/04 11:19:32;;;;;;;;;;;18.50;99.90;;;;;;5030171;28;19909;-73
2023/01/04 11:22:02;;;;;;;;;;;18.50;99.90;;;;;;5015977;28;19999;-73
2023/01/04 11:24:30;;;;;;;;;;;18.40;99.90;;;;;;5015806;28;19914;-74
2023/01/04 11:26:57;;;;;;;;;;;18.30;99.90;;;;;;5014546;28;20008;-70
2023/01/04 11:29:31;;;;;;;;;;;18.30;99.90;;;;;;5014859;28;19910;-70
2023/01/04 11:32:10;;;;;;;;;;;18.30;99.90;;;;;;5014583;28;20324;-71
2023/01/04 11:34:44;;;;;;;;;;;18.20;99.90;;;;;;5014922;28;19921;-72
2023/01/04 11:37:26;;;;;;;;;;;18.20;99.90;;;;;;5014906;28;19913;-69
2023/01/04 11:40:10;;;;;;;;;;;18.20;99.90;;;;;;5014915;28;20402;-70
2023/01/04 11:42:37;;;;;;;;;;;18.20;99.90;;;;;;5014838;28;20411;-72
2023/01/04 11:45:04;;;;;;;;;;;18.20;99.90;;;;;;5015365;28;20375;-70
2023/01/04 11:47:30;;;;;;;;;;;18.20;99.90;;;;;;5012777;28;20004;-80
2023/01/04 11:49:57;;;;;;;;;;;18.30;99.90;;;;;;5014632;28;19910;-68
2023/01/04 11:52:26;;;;;;;;;;;18.30;99.90;;;;;;5014545;28;19968;-75
2023/01/04 11:54:53;;;;;;;;;;;18.30;99.90;;;;;;5014679;28;19921;-69
2023/01/04 11:57:20;;;;;;;;;;;18.30;99.90;;;;;;5013953;28;19913;-71
2023/01/04 12:00:07;;;;;;;;;;;18.30;99.90;;;;;;5014367;28;19932;-73
2023/01/04 12:02:34;;;;;;;;;;;18.30;99.90;;;;;;5014524;28;19913;-70
2023/01/04 12:05:01;;;;;;;;;;;18.30;99.90;;;;;;5013011;28;20358;-83
2023/01/04 12:07:32;;;;;;;;;;;18.40;99.90;;;;;;5013845;28;20280;-76
2023/01/04 12:09:59;;;;;;;;;;;18.30;99.90;;;;;;5014330;28;20429;-73
2023/01/04 12:12:31;;;;;;;;;;;18.30;99.90;;;;;;5014224;28;19916;-75
2023/01/04 12:15:21;;;;;;;;;;;18.30;99.90;;;;;;5014217;28;20012;-72
2023/01/04 12:17:48;;;;;;;;;;;18.20;99.90;;;;;;5008436;28;19920;-73
2023/01/04 12:20:18;;;;;;;;;;;18.20;99.90;;;;;;5014091;28;20398;-75
2023/01/04 12:22:45;;;;;;;;;;;18.20;99.90;;;;;;5014339;28;19910;-76
2023/01/04 12:25:26;;;;;;;;;;;18.10;99.90;;;;;;5014140;28;20079;-78
2023/01/04 12:27:56;;;;;;;;;;;18.10;99.90;;;;;;5013473;28;19925;-69
2023/01/04 12:30:38;;;;;;;;;;;18.20;99.90;;;;;;5013868;28;20394;-69
2023/01/04 12:33:34;;;;;;;;;;;18.10;99.90;;;;;;5013945;28;19919;-77
2023/01/04 12:36:11;;;;;;;;;;;18.10;99.90;;;;;;5005117;28;19933;-78
2023/01/04 12:38:56;;;;;;;;;;;18.10;99.90;;;;;;5013812;28;19916;-71
2023/01/04 12:41:24;;;;;;;;;;;18.00;99.90;;;;;;5013917;28;19971;-81
2023/01/04 12:43:52;;;;;;;;;;;18.10;99.90;;;;;;5014093;28;19910;-74
2023/01/04 12:49:28;;;;;;;;;;;18.10;99.90;;;;;;5014008;28;19932;-72
2023/01/04 12:52:21;;;;;;;;;;;18.10;99.90;;;;;;5013658;28;19913;-72
2023/01/04 12:54:56;;;;;;;;;;;18.10;99.90;;;;;;5013786;28;20376;-69
2023/01/04 12:57:24;;;;;;;;;;;18.00;99.90;;;;;;5012933;28;20017;-79
2023/01/04 12:59:56;;;;;;;;;;;18.00;99.90;;;;;;5013565;28;19952;-73
2023/01/04 13:02:33;;;;;;;;;;;18.00;99.90;;;;;;5013835;28;19936;-72
2023/01/04 13:04:59;;;;;;;;;;;18.00;99.90;;;;;;5013546;28;20428;-80
2023/01/04 13:07:39;;;;;;;;;;;18.10;99.90;;;;;;5012810;28;20373;-80
2023/01/04 13:10:18;;;;;;;;;;;18.10;99.90;;;;;;5013203;28;19945;-79
2023/01/04 13:13:03;;;;;;;;;;;18.10;99.90;;;;;;5013070;28;20368;-79
2023/01/04 13:15:32;;;;;;;;;;;18.20;99.90;;;;;;5012756;28;20309;-81
2023/01/04 13:17:59;;;;;;;;;;;18.20;99.90;;;;;;5012808;28;19913;-81
2023/01/04 13:20:27;;;;;;;;;;;18.20;99.90;;;;;;5012969;28;19925;-80
2023/01/04 13:22:55;;;;;;;;;;;18.20;99.90;;;;;;5013018;28;19913;-78
2023/01/04 13:25:23;;;;;;;;;;;18.20;99.90;;;;;;5012873;28;20019;-78
2023/01/04 13:27:56;;;;;;;;;;;18.30;99.90;;;;;;5012787;28;20399;-81
2023/01/04 13:30:30;;;;;;;;;;;18.30;99.90;;;;;;5012863;28;19913;-81
2023/01/04 13:32:57;;;;;;;;;;;18.30;99.90;;;;;;5012750;28;20523;-81
2023/01/04 13:35:23;;;;;;;;;;;18.30;99.90;;;;;;5012554;28;19948;-80
2023/01/04 13:37:50;;;;;;;;;;;18.30;99.90;;;;;;5011718;28;19913;-79
2023/01/04 13:40:20;;;;;;;;;;;18.30;99.90;;;;;;5012767;28;19918;-79
2023/01/04 13:43:08;;;;;;;;;;;18.20;99.90;;;;;;5012620;28;20364;-82
2023/01/04 13:45:54;;;;;;;;;;;18.30;99.90;;;;;;5005237;28;19909;-80
2023/01/04 13:48:21;;;;;;;;;;;18.30;99.90;;;;;;5012370;28;19909;-80
2023/01/04 13:50:59;;;;;;;;;;;18.30;99.90;;;;;;5012597;28;19914;-81
2023/01/04 13:53:26;;;;;;;;;;;18.30;99.90;;;;;;5012137;28;20410;-82
2023/01/04 13:56:00;;;;;;;;;;;18.30;99.90;;;;;;5012486;28;19992;-78
2023/01/04 13:58:30;;;;;;;;;;;18.30;99.90;;;;;;5012236;28;20360;-80
2023/01/04 14:01:18;;;;;;;;;;;18.30;99.90;;;;;;5011216;28;20314;-82
2023/01/04 14:03:55;;;;;;;;;;;18.20;99.90;;;;;;5012716;28;20007;-82
2023/01/04 14:06:24;;;;;;;;;;;18.10;99.90;;;;;;5012723;28;19910;-82
2023/01/04 14:09:01;;;;;;;;;;;18.10;99.90;;;;;;5013429;28;19914;-81
2023/01/04 14:11:58;;;;;;;;;;;18.10;99.90;;;;;;5012010;28;20043;-82
2023/01/04 14:14:34;;;;;;;;;;;18.00;99.90;;;;;;5012252;28;19921;-82
2023/01/04 14:17:08;;;;;;;;;;;18.10;99.90;;;;;;5011926;28;19909;-80
2023/01/04 14:19:53;;;;;;;;;;;18.10;99.90;;;;;;5012492;28;19913;-81
2023/01/04 14:22:34;;;;;;;;;;;18.10;99.90;;;;;;5012295;28;19913;-82
2023/01/04 14:25:20;;;;;;;;;;;18.00;99.90;;;;;;5012378;28;19910;-81
2023/01/04 14:27:47;;;;;;;;;;;18.10;99.90;;;;;;5011690;28;19948;-81
2023/01/04 14:30:19;;;;;;;;;;;18.10;99.90;;;;;;5012298;28;19917;-80
2023/01/04 14:32:56;;;;;;;;;;;18.00;99.90;;;;;;5012111;28;19917;-81
2023/01/04 14:35:23;;;;;;;;;;;18.00;99.90;;;;;;5011903;28;19964;-81
2023/01/04 14:37:51;;;;;;;;;;;18.00;99.90;;;;;;5010495;28;20352;-81
2023/01/04 14:40:29;;;;;;;;;;;18.00;99.90;;;;;;5012177;28;19909;-81
2023/01/04 14:42:56;;;;;;;;;;;17.90;99.90;;;;;;5011947;28;19910;-81
2023/01/04 14:45:23;;;;;;;;;;;17.90;99.90;;;;;;5011840;28;19941;-81
2023/01/04 14:47:50;;;;;;;;;;;17.90;99.90;;;;;;5011748;28;19910;-82
2023/01/04 14:50:17;;;;;;;;;;;17.90;99.90;;;;;;5014713;28;19916;-81
2023/01/04 14:52:50;;;;;;;;;;;17.90;99.90;;;;;;5015795;28;19909;-81
2023/01/04 14:55:17;;;;;;;;;;;17.90;99.90;;;;;;5015462;28;19922;-81
2023/01/04 14:57:44;;;;;;;;;;;17.90;99.90;;;;;;5015263;28;19909;-81
2023/01/04 15:00:15;;;;;;;;;;;17.90;99.90;;;;;;5015625;28;19967;-80
2023/01/04 15:02:44;;;;;;;;;;;17.90;99.90;;;;;;5015921;28;19917;-81
2023/01/04 15:05:11;;;;;;;;;;;17.90;99.90;;;;;;5015542;28;19909;-81
2023/01/04 15:07:39;;;;;;;;;;;17.90;99.90;;;;;;5015289;28;20008;-80
2023/01/04 15:10:26;;;;;;;;;;;17.80;99.90;;;;;;5015467;28;19910;-79
2023/01/04 15:12:53;;;;;;;;;;;17.90;99.90;;;;;;5015134;28;19913;-80
2023/01/04 15:15:20;;;;;;;;;;;17.80;99.90;;;;;;5015197;28;19980;-80
2023/01/04 15:17:46;;;;;;;;;;;17.70;99.90;;;;;;5013531;28;19932;-78
2023/01/04 15:20:13;;;;;;;;;;;17.70;99.90;;;;;;5015352;28;19913;-80